Uzice, Serbia
Current Conditions -  °F | °C
As of 8:00 PM on Monday 22 Dec 2014 (Local Time) from LYUZ Reporting Station
Clear Clear  
Wind Chill: 34°   Ceiling: Unl
Heat Index: 39°   Visibility: 6mi
Dew Point: 27°   Wind: 7mph
Humidity: 61%   Direction: 240°WSW
Pressure: 30.24"   Gusts: NA
Location:  43.85°N, 19.85°E
Report Text: LYUZ 221800Z 24006KT 200V270 CAVOK 04/M03 Q1024 R10///////
Loading
Personal Weather Stations






























Interactive Weather Map New forecast layout! Learn more

10-Day Weather Forecast

Advertisements
Track Severe Weather on mobile